Time;durP1;ratioP1;P1;durP2;ratioP2;P2;SDS_P1;SDS_P2;PMS_P1;PMS_P2;Temp;Humidity;BMP_temperature;BMP_pressure;BME280_temperature;BME280_humidity;BME280_pressure;Samples;Min_cycle;Max_cycle;Signal;HPM_P1;HPM_P2
2022/09/19 00:01:32;;;;;;;0.00;0.00;;;;;;;;;;5008328;28;20197;-60
2022/09/19 00:04:00;;;;;;;0.40;0.20;;;;;;;;;;5004395;28;20252;-60
2022/09/19 00:06:29;;;;;;;0.10;0.10;;;;;;;;;;5006949;28;20627;-60
2022/09/19 00:08:56;;;;;;;0.30;0.30;;;;;;;;;;5009042;28;20201;-60
2022/09/19 00:11:24;;;;;;;1.17;0.30;;;;;;;;;;5009319;28;20205;-60
2022/09/19 00:13:52;;;;;;;0.07;0.07;;;;;;;;;;5008906;28;20240;-60
2022/09/19 00:16:20;;;;;;;0.20;0.20;;;;;;;;;;5008125;28;20565;-60
2022/09/19 00:18:47;;;;;;;0.10;0.10;;;;;;;;;;5007524;28;20228;-59
2022/09/19 00:21:19;;;;;;;0.20;0.20;;;;;;;;;;5008320;28;20205;-60
2022/09/19 00:26:32;;;;;;;0.10;0.10;;;;;;;;;;5008283;28;20684;-60
2022/09/19 00:28:59;;;;;;;0.30;0.30;;;;;;;;;;5008718;28;20259;-61
2022/09/19 00:31:27;;;;;;;0.10;0.10;;;;;;;;;;5008195;28;20212;-59
2022/09/19 00:33:55;;;;;;;0.67;0.10;;;;;;;;;;5008062;28;20741;-59
2022/09/19 00:36:22;;;;;;;1.30;0.20;;;;;;;;;;5008746;28;20213;-60
2022/09/19 00:38:51;;;;;;;0.17;0.17;;;;;;;;;;5008063;28;20201;-59
2022/09/19 00:41:19;;;;;;;0.47;0.20;;;;;;;;;;5007934;28;20201;-59
2022/09/19 00:43:47;;;;;;;0.10;0.10;;;;;;;;;;5008029;28;20205;-60
2022/09/19 00:46:15;;;;;;;0.03;0.03;;;;;;;;;;5007779;28;20205;-61
2022/09/19 00:48:42;;;;;;;0.20;0.20;;;;;;;;;;5000502;28;20210;-59
2022/09/19 00:51:10;;;;;;;2.20;0.40;;;;;;;;;;4999851;28;20215;-60
2022/09/19 00:53:38;;;;;;;0.20;0.20;;;;;;;;;;4993278;28;20222;-59
2022/09/19 00:56:07;;;;;;;2.03;0.30;;;;;;;;;;4996318;28;20648;-59
2022/09/19 00:58:35;;;;;;;3.30;0.53;;;;;;;;;;5008791;28;20629;-60
2022/09/19 01:01:03;;;;;;;0.77;0.17;;;;;;;;;;5009215;28;20213;-60
2022/09/19 01:03:31;;;;;;;1.63;0.40;;;;;;;;;;5008853;28;20625;-60
2022/09/19 01:06:05;;;;;;;0.20;0.20;;;;;;;;;;5008422;28;20841;-60
2022/09/19 01:08:45;;;;;;;0.27;0.27;;;;;;;;;;5009043;28;20256;-60
2022/09/19 01:11:22;;;;;;;0.07;0.07;;;;;;;;;;5009459;28;20741;-60
2022/09/19 01:13:53;;;;;;;3.17;0.30;;;;;;;;;;5008001;28;20223;-60
2022/09/19 01:16:24;;;;;;;0.50;0.20;;;;;;;;;;5007685;28;20629;-60
2022/09/19 01:19:01;;;;;;;0.53;0.10;;;;;;;;;;5005094;28;20209;-59
2022/09/19 01:21:40;;;;;;;0.57;0.13;;;;;;;;;;5007604;28;20573;-60
2022/09/19 01:24:26;;;;;;;0.20;0.20;;;;;;;;;;5008819;28;20211;-59
2022/09/19 01:27:02;;;;;;;0.10;0.10;;;;;;;;;;5008073;28;20216;-59
2022/09/19 01:29:33;;;;;;;1.30;0.20;;;;;;;;;;5012667;28;20204;-59
2022/09/19 01:32:01;;;;;;;0.57;0.20;;;;;;;;;;5011252;28;20259;-59
2022/09/19 01:34:30;;;;;;;0.93;0.20;;;;;;;;;;5008308;28;20446;-60
2022/09/19 01:37:02;;;;;;;0.20;0.20;;;;;;;;;;5010979;28;20205;-59
2022/09/19 01:39:30;;;;;;;0.13;0.13;;;;;;;;;;5010271;28;20251;-60
2022/09/19 01:41:58;;;;;;;2.10;0.37;;;;;;;;;;5011108;28;20315;-59
2022/09/19 01:44:26;;;;;;;1.90;0.30;;;;;;;;;;5010644;28;20193;-60
2022/09/19 01:46:58;;;;;;;1.80;0.40;;;;;;;;;;5009606;28;20220;-59
2022/09/19 01:49:34;;;;;;;3.27;0.30;;;;;;;;;;5009044;28;20224;-60
2022/09/19 01:52:03;;;;;;;0.60;0.13;;;;;;;;;;5008631;28;20552;-60
2022/09/19 01:54:40;;;;;;;4.57;0.43;;;;;;;;;;5009283;28;20239;-60
2022/09/19 01:57:14;;;;;;;1.13;0.30;;;;;;;;;;5009883;28;20205;-59
2022/09/19 01:59:46;;;;;;;5.53;0.40;;;;;;;;;;5010015;28;20266;-60
2022/09/19 02:02:21;;;;;;;3.60;0.30;;;;;;;;;;5008622;28;20205;-60
2022/09/19 02:04:49;;;;;;;0.30;0.30;;;;;;;;;;5007689;28;20315;-59
2022/09/19 02:07:20;;;;;;;1.80;0.10;;;;;;;;;;5008633;28;20205;-60
2022/09/19 02:09:49;;;;;;;1.20;0.17;;;;;;;;;;5009265;28;20205;-60
2022/09/19 02:12:18;;;;;;;0.20;0.20;;;;;;;;;;5008462;28;20200;-59
2022/09/19 02:14:50;;;;;;;0.20;0.20;;;;;;;;;;5009569;28;20225;-59
2022/09/19 02:17:21;;;;;;;3.50;0.20;;;;;;;;;;5008454;28;20201;-59
2022/09/19 02:19:51;;;;;;;8.80;0.53;;;;;;;;;;5009661;28;20596;-59
2022/09/19 02:22:22;;;;;;;2.73;0.50;;;;;;;;;;5009773;28;20201;-59
2022/09/19 02:24:51;;;;;;;2.37;0.20;;;;;;;;;;5010301;28;20197;-60
2022/09/19 02:27:21;;;;;;;0.47;0.20;;;;;;;;;;5009628;28;20201;-60
2022/09/19 02:29:50;;;;;;;0.17;0.10;;;;;;;;;;5010704;28;20682;-59
2022/09/19 02:32:19;;;;;;;2.30;0.20;;;;;;;;;;5009742;28;20667;-60
2022/09/19 02:34:49;;;;;;;0.40;0.40;;;;;;;;;;5009294;28;20244;-60
2022/09/19 02:37:21;;;;;;;0.10;0.10;;;;;;;;;;5009934;28;20671;-60
2022/09/19 02:39:50;;;;;;;0.10;0.10;;;;;;;;;;5008134;28;20287;-60
2022/09/19 02:42:20;;;;;;;1.03;0.20;;;;;;;;;;5008823;28;20275;-60
2022/09/19 02:44:54;;;;;;;2.13;0.40;;;;;;;;;;5008413;28;20197;-59
2022/09/19 02:47:24;;;;;;;0.60;0.40;;;;;;;;;;5009513;28;20963;-59
2022/09/19 02:49:54;;;;;;;0.20;0.20;;;;;;;;;;5009402;28;20237;-60
2022/09/19 02:52:24;;;;;;;0.20;0.10;;;;;;;;;;5010111;28;20243;-59
2022/09/19 02:54:54;;;;;;;1.47;0.73;;;;;;;;;;5009448;28;20670;-58
2022/09/19 02:57:22;;;;;;;0.20;0.20;;;;;;;;;;5003653;28;20251;-59
2022/09/19 02:59:51;;;;;;;3.10;0.10;;;;;;;;;;5009978;28;20255;-60
2022/09/19 03:02:19;;;;;;;2.40;0.17;;;;;;;;;;5009314;28;20233;-60
2022/09/19 03:04:49;;;;;;;0.20;0.20;;;;;;;;;;5009702;28;20243;-60
2022/09/19 03:07:19;;;;;;;0.10;0.10;;;;;;;;;;5009879;28;20220;-59
2022/09/19 03:09:48;;;;;;;0.30;0.30;;;;;;;;;;5008790;28;20200;-60
2022/09/19 03:12:18;;;;;;;1.13;0.30;;;;;;;;;;5007472;28;20201;-60
2022/09/19 03:14:45;;;;;;;0.83;0.33;;;;;;;;;;5008495;28;20221;-60
2022/09/19 03:17:16;;;;;;;1.60;0.20;;;;;;;;;;5009888;28;20565;-59
2022/09/19 03:19:46;;;;;;;1.30;0.37;;;;;;;;;;5009956;28;20251;-59
2022/09/19 03:22:13;;;;;;;0.87;0.40;;;;;;;;;;5007931;28;20209;-60
2022/09/19 03:24:41;;;;;;;0.40;0.40;;;;;;;;;;5009196;28;20209;-59
2022/09/19 03:27:09;;;;;;;0.80;0.27;;;;;;;;;;5008841;28;20205;-59
2022/09/19 03:29:36;;;;;;;1.40;0.43;;;;;;;;;;5006305;28;20869;-59
2022/09/19 03:32:03;;;;;;;1.87;0.33;;;;;;;;;;5008766;28;20625;-59
2022/09/19 03:34:32;;;;;;;1.80;0.50;;;;;;;;;;5009597;28;20638;-59
2022/09/19 03:37:00;;;;;;;1.20;0.33;;;;;;;;;;5009465;28;20205;-60
2022/09/19 03:39:27;;;;;;;0.93;0.47;;;;;;;;;;5005538;28;20235;-60
2022/09/19 03:41:55;;;;;;;0.47;0.40;;;;;;;;;;5008852;28;20213;-60
2022/09/19 03:44:22;;;;;;;0.43;0.43;;;;;;;;;;5008640;28;20655;-60
2022/09/19 03:46:50;;;;;;;0.83;0.50;;;;;;;;;;5008522;28;20259;-59
2022/09/19 03:49:19;;;;;;;0.67;0.40;;;;;;;;;;5006681;28;20216;-59
2022/09/19 03:51:46;;;;;;;1.70;0.50;;;;;;;;;;5002987;28;20586;-60
2022/09/19 03:54:13;;;;;;;1.03;0.30;;;;;;;;;;5007859;28;20221;-59
2022/09/19 03:56:40;;;;;;;0.37;0.33;;;;;;;;;;5008460;28;20250;-58
2022/09/19 03:59:08;;;;;;;0.77;0.60;;;;;;;;;;5008596;28;20239;-59
2022/09/19 04:01:35;;;;;;;3.57;0.50;;;;;;;;;;5008719;28;20244;-59
2022/09/19 04:04:05;;;;;;;1.80;0.80;;;;;;;;;;5008850;28;20244;-60
2022/09/19 04:06:32;;;;;;;1.13;1.03;;;;;;;;;;5008143;28;20211;-60
2022/09/19 04:09:00;;;;;;;1.70;0.50;;;;;;;;;;5009372;28;20279;-59
2022/09/19 04:11:29;;;;;;;3.73;0.60;;;;;;;;;;5008474;28;20304;-59
2022/09/19 04:13:56;;;;;;;3.13;0.60;;;;;;;;;;5008646;28;20647;-59
2022/09/19 04:16:25;;;;;;;3.80;0.50;;;;;;;;;;5008210;28;20210;-59
2022/09/19 04:18:52;;;;;;;0.53;0.30;;;;;;;;;;5007648;28;20240;-59
2022/09/19 04:21:20;;;;;;;0.50;0.47;;;;;;;;;;5008325;28;20292;-60
2022/09/19 04:23:47;;;;;;;1.83;0.43;;;;;;;;;;5007260;28;20213;-59
2022/09/19 04:26:14;;;;;;;0.30;0.30;;;;;;;;;;5008075;28;20315;-60
2022/09/19 04:28:42;;;;;;;1.73;0.43;;;;;;;;;;5008604;28;20252;-60
2022/09/19 04:31:12;;;;;;;2.13;0.30;;;;;;;;;;5008307;28;20220;-59
2022/09/19 04:33:40;;;;;;;0.33;0.30;;;;;;;;;;5005919;28;20201;-60
2022/09/19 04:36:08;;;;;;;0.93;0.30;;;;;;;;;;5008419;28;20221;-59
2022/09/19 04:38:36;;;;;;;1.20;0.50;;;;;;;;;;5007108;28;20197;-59
2022/09/19 04:41:04;;;;;;;1.77;0.47;;;;;;;;;;5004901;28;20209;-59
2022/09/19 04:43:32;;;;;;;2.57;0.47;;;;;;;;;;5006677;28;20232;-60
2022/09/19 04:46:01;;;;;;;3.83;0.43;;;;;;;;;;5006516;28;20224;-60
2022/09/19 04:48:28;;;;;;;0.60;0.30;;;;;;;;;;5006714;28;20204;-60
2022/09/19 04:50:56;;;;;;;1.33;0.70;;;;;;;;;;5007404;28;20660;-60
2022/09/19 04:53:27;;;;;;;2.63;0.50;;;;;;;;;;5008142;28;20209;-60
2022/09/19 04:55:55;;;;;;;0.97;0.73;;;;;;;;;;5003447;28;20696;-60
2022/09/19 04:58:23;;;;;;;1.53;0.60;;;;;;;;;;5008017;28;20255;-60
2022/09/19 05:00:54;;;;;;;1.63;0.50;;;;;;;;;;5003666;28;20205;-58
2022/09/19 05:03:25;;;;;;;1.23;0.60;;;;;;;;;;5006363;28;20401;-59
2022/09/19 05:05:52;;;;;;;0.30;0.30;;;;;;;;;;5006970;28;20895;-59
2022/09/19 05:08:25;;;;;;;1.90;0.43;;;;;;;;;;5003142;28;20206;-60
2022/09/19 05:10:54;;;;;;;2.40;0.50;;;;;;;;;;4999064;28;20758;-59
2022/09/19 05:13:21;;;;;;;1.90;0.60;;;;;;;;;;5000143;28;20213;-58
2022/09/19 05:15:51;;;;;;;0.47;0.47;;;;;;;;;;5000748;28;20225;-60
2022/09/19 05:18:20;;;;;;;4.30;0.50;;;;;;;;;;5000624;28;20328;-60
2022/09/19 05:20:47;;;;;;;2.13;0.50;;;;;;;;;;5002467;28;20206;-58
2022/09/19 05:23:14;;;;;;;1.33;0.50;;;;;;;;;;4999179;28;20229;-60
2022/09/19 05:25:43;;;;;;;1.23;0.43;;;;;;;;;;4998637;28;20193;-60
2022/09/19 05:28:10;;;;;;;1.03;0.60;;;;;;;;;;5008036;28;20201;-61
2022/09/19 05:30:38;;;;;;;1.80;0.57;;;;;;;;;;5008925;28;20201;-60
2022/09/19 05:33:06;;;;;;;5.10;0.70;;;;;;;;;;5008746;28;20205;-60
2022/09/19 05:35:33;;;;;;;1.87;0.50;;;;;;;;;;5008977;28;20229;-60
2022/09/19 05:38:00;;;;;;;0.60;0.60;;;;;;;;;;5008776;28;20209;-58
2022/09/19 05:40:28;;;;;;;2.73;0.60;;;;;;;;;;5008039;28;20632;-60
2022/09/19 05:42:59;;;;;;;4.30;0.70;;;;;;;;;;5007894;28;20264;-60
2022/09/19 05:45:32;;;;;;;0.60;0.60;;;;;;;;;;4994676;28;20559;-61
2022/09/19 05:48:04;;;;;;;3.00;0.90;;;;;;;;;;4990804;28;20225;-60
2022/09/19 05:50:31;;;;;;;0.37;0.37;;;;;;;;;;5004931;28;20675;-60
2022/09/19 05:55:43;;;;;;;1.10;0.50;;;;;;;;;;5007791;28;20909;-60
2022/09/19 05:58:13;;;;;;;2.23;0.53;;;;;;;;;;5007748;28;20216;-60
2022/09/19 06:00:40;;;;;;;2.67;0.70;;;;;;;;;;5007496;28;20264;-60
2022/09/19 06:03:08;;;;;;;3.13;0.63;;;;;;;;;;5007309;28;20244;-60
2022/09/19 06:05:39;;;;;;;1.40;0.60;;;;;;;;;;5007807;28;20240;-60
2022/09/19 06:08:07;;;;;;;1.00;0.73;;;;;;;;;;5007517;28;20747;-60
2022/09/19 06:10:35;;;;;;;2.93;0.70;;;;;;;;;;5007987;28;20209;-60
2022/09/19 06:13:02;;;;;;;3.37;0.50;;;;;;;;;;5001899;28;20659;-60
2022/09/19 06:15:30;;;;;;;0.93;0.60;;;;;;;;;;5011563;28;20228;-61
2022/09/19 06:17:57;;;;;;;1.07;0.73;;;;;;;;;;5011133;28;20753;-60
2022/09/19 06:20:24;;;;;;;0.50;0.50;;;;;;;;;;5011389;28;20229;-60
2022/09/19 06:22:56;;;;;;;5.40;0.80;;;;;;;;;;5011071;28;20213;-61
2022/09/19 06:25:25;;;;;;;0.60;0.60;;;;;;;;;;5011312;28;20304;-61
2022/09/19 06:27:54;;;;;;;1.03;0.43;;;;;;;;;;4994283;28;20217;-62
2022/09/19 06:30:22;;;;;;;0.93;0.50;;;;;;;;;;4996633;28;20636;-61
2022/09/19 06:32:50;;;;;;;1.70;0.30;;;;;;;;;;5009046;28;20205;-61
2022/09/19 06:35:17;;;;;;;1.03;0.53;;;;;;;;;;5010908;28;20647;-61
2022/09/19 06:37:45;;;;;;;4.33;0.50;;;;;;;;;;5011064;28;20213;-60
2022/09/19 06:40:12;;;;;;;3.33;0.50;;;;;;;;;;5010949;28;20659;-61
2022/09/19 06:42:39;;;;;;;4.93;0.60;;;;;;;;;;5010691;28;20208;-61
2022/09/19 06:45:07;;;;;;;1.37;0.40;;;;;;;;;;5010519;28;20236;-62
2022/09/19 06:47:35;;;;;;;2.10;0.97;;;;;;;;;;5010994;28;20213;-61
2022/09/19 06:50:08;;;;;;;3.20;0.43;;;;;;;;;;5010584;28;20936;-60
2022/09/19 06:52:35;;;;;;;0.50;0.50;;;;;;;;;;4989441;28;20221;-60
2022/09/19 06:55:03;;;;;;;3.37;0.50;;;;;;;;;;5003875;28;20291;-60
2022/09/19 06:57:30;;;;;;;1.93;0.40;;;;;;;;;;4997730;28;20647;-60
2022/09/19 06:59:57;;;;;;;2.40;0.80;;;;;;;;;;4995439;28;20352;-60
2022/09/19 07:02:24;;;;;;;1.70;0.70;;;;;;;;;;5009772;28;20243;-59
2022/09/19 07:04:51;;;;;;;0.77;0.60;;;;;;;;;;4993748;28;20642;-59
2022/09/19 07:07:19;;;;;;;5.63;0.67;;;;;;;;;;4990838;28;20214;-59
2022/09/19 07:09:46;;;;;;;0.60;0.60;;;;;;;;;;5005348;28;20251;-59
2022/09/19 07:12:13;;;;;;;0.97;0.60;;;;;;;;;;5010477;28;20240;-59
2022/09/19 07:14:41;;;;;;;6.87;0.77;;;;;;;;;;5010103;28;20703;-60
2022/09/19 07:17:08;;;;;;;2.40;0.50;;;;;;;;;;5010234;28;20227;-60
2022/09/19 07:19:35;;;;;;;0.40;0.40;;;;;;;;;;5010078;28;20205;-59
2022/09/19 07:22:05;;;;;;;2.00;0.43;;;;;;;;;;5010295;28;20832;-60
2022/09/19 07:24:33;;;;;;;2.77;0.50;;;;;;;;;;5008937;28;20252;-60
2022/09/19 07:27:00;;;;;;;3.10;0.57;;;;;;;;;;5009871;28;20212;-60
2022/09/19 07:29:27;;;;;;;1.07;0.63;;;;;;;;;;5007865;28;20209;-60
2022/09/19 07:31:54;;;;;;;3.20;0.63;;;;;;;;;;5007981;28;20577;-63
2022/09/19 07:34:22;;;;;;;3.60;0.70;;;;;;;;;;5009861;28;20271;-59
2022/09/19 07:36:49;;;;;;;1.93;0.50;;;;;;;;;;5007909;28;20466;-59
2022/09/19 07:39:16;;;;;;;2.67;0.60;;;;;;;;;;5009563;28;20212;-60
2022/09/19 07:41:44;;;;;;;0.83;0.70;;;;;;;;;;5006442;28;20667;-59
2022/09/19 07:44:11;;;;;;;2.07;0.77;;;;;;;;;;5009366;28;20243;-59
2022/09/19 07:47:26;;;;;;;0.50;0.50;;;;;;;;;;5008413;28;20212;-60
2022/09/19 07:49:25;;;;;;;1.50;0.77;;;;;;;;;;5009415;28;20259;-59
2022/09/19 07:51:52;;;;;;;2.07;0.70;;;;;;;;;;5009304;28;20583;-60
2022/09/19 07:54:19;;;;;;;2.57;1.03;;;;;;;;;;5009527;28;20220;-59
2022/09/19 07:56:48;;;;;;;1.37;0.40;;;;;;;;;;5009796;28;20229;-59
2022/09/19 07:59:15;;;;;;;1.17;0.30;;;;;;;;;;5008745;28;20209;-59
2022/09/19 08:01:42;;;;;;;1.13;0.30;;;;;;;;;;5009741;28;20750;-59
2022/09/19 08:04:09;;;;;;;0.50;0.50;;;;;;;;;;5009804;28;20245;-59
2022/09/19 08:06:36;;;;;;;3.63;0.50;;;;;;;;;;5009337;28;20209;-59
2022/09/19 08:09:03;;;;;;;1.70;0.70;;;;;;;;;;5009709;28;20208;-59
2022/09/19 08:11:30;;;;;;;1.40;0.50;;;;;;;;;;5009312;28;20256;-58
2022/09/19 08:13:59;;;;;;;0.40;0.40;;;;;;;;;;5009182;28;20697;-59
2022/09/19 08:16:26;;;;;;;4.17;0.70;;;;;;;;;;5008455;28;20228;-62
2022/09/19 08:18:53;;;;;;;0.63;0.63;;;;;;;;;;5009318;28;20205;-59
2022/09/19 08:21:20;;;;;;;0.90;0.80;;;;;;;;;;5009016;28;20205;-60
2022/09/19 08:23:48;;;;;;;2.10;0.53;;;;;;;;;;5008801;28;20296;-60
2022/09/19 08:26:16;;;;;;;0.33;0.33;;;;;;;;;;5008523;28;20622;-61
2022/09/19 08:28:43;;;;;;;2.13;0.60;;;;;;;;;;5003990;28;20201;-64
2022/09/19 08:31:12;;;;;;;3.27;0.70;;;;;;;;;;5007003;28;20259;-60
2022/09/19 08:33:39;;;;;;;1.70;0.90;;;;;;;;;;5007022;28;20208;-60
2022/09/19 08:36:07;;;;;;;2.63;0.97;;;;;;;;;;5001491;28;20257;-60
2022/09/19 08:38:34;;;;;;;5.00;1.00;;;;;;;;;;5009121;28;20235;-60
2022/09/19 08:41:21;;;;;;;1.33;0.90;;;;;;;;;;5007478;28;20223;-60
2022/09/19 08:43:50;;;;;;;1.00;1.00;;;;;;;;;;5007616;28;20675;-60
2022/09/19 08:46:21;;;;;;;0.83;0.83;;;;;;;;;;5008307;28;20216;-60
2022/09/19 08:48:55;;;;;;;1.17;1.00;;;;;;;;;;5008994;28;20208;-60
2022/09/19 08:51:25;;;;;;;2.20;1.00;;;;;;;;;;4994994;28;20209;-60
2022/09/19 08:53:53;;;;;;;3.30;0.80;;;;;;;;;;4989248;28;20224;-59
2022/09/19 08:56:21;;;;;;;3.80;0.83;;;;;;;;;;4996361;28;20237;-59
2022/09/19 08:58:50;;;;;;;1.33;0.80;;;;;;;;;;5000409;28;20753;-59
2022/09/19 09:01:20;;;;;;;0.73;0.73;;;;;;;;;;5007918;28;20216;-59
2022/09/19 09:03:51;;;;;;;2.40;0.80;;;;;;;;;;5007905;28;20244;-59
2022/09/19 09:06:24;;;;;;;1.20;1.10;;;;;;;;;;5008470;28;20205;-58
2022/09/19 09:08:56;;;;;;;1.13;0.70;;;;;;;;;;5008139;28;20333;-59
2022/09/19 09:11:28;;;;;;;1.50;0.70;;;;;;;;;;4990106;28;20627;-58
2022/09/19 09:13:58;;;;;;;3.70;0.90;;;;;;;;;;5007341;28;20208;-59
2022/09/19 09:16:30;;;;;;;2.40;1.20;;;;;;;;;;5007992;28;20225;-60
2022/09/19 09:19:03;;;;;;;3.03;1.17;;;;;;;;;;5008428;28;20260;-59
2022/09/19 09:21:34;;;;;;;1.00;1.00;;;;;;;;;;5007731;28;20212;-62
2022/09/19 09:24:04;;;;;;;1.30;1.20;;;;;;;;;;5007102;28;20284;-59
2022/09/19 09:26:36;;;;;;;1.20;1.10;;;;;;;;;;5008985;28;20209;-60
2022/09/19 09:29:11;;;;;;;0.90;0.77;;;;;;;;;;5008133;28;20622;-62
2022/09/19 09:31:40;;;;;;;0.80;0.80;;;;;;;;;;5004613;28;20670;-59
2022/09/19 09:34:12;;;;;;;1.23;1.07;;;;;;;;;;5006590;28;20212;-59
2022/09/19 09:36:42;;;;;;;2.57;0.80;;;;;;;;;;5004002;28;20255;-60
2022/09/19 09:39:16;;;;;;;1.43;0.73;;;;;;;;;;5001318;28;20252;-59
2022/09/19 09:41:45;;;;;;;2.07;0.97;;;;;;;;;;5006583;28;20245;-59
2022/09/19 09:44:38;;;;;;;0.80;0.80;;;;;;;;;;5007972;28;20240;-59
2022/09/19 09:47:14;;;;;;;0.70;0.70;;;;;;;;;;5007687;28;20201;-59
2022/09/19 09:49:41;;;;;;;1.60;0.80;;;;;;;;;;4997791;28;20840;-59
2022/09/19 09:52:20;;;;;;;1.37;0.73;;;;;;;;;;4992190;28;20256;-62
2022/09/19 09:57:45;;;;;;;2.53;0.87;;;;;;;;;;5010964;28;20258;-59
2022/09/19 10:05:51;;;;;;;1.65;0.73;;;;;;;;;;5010433;28;20236;-60
2022/09/19 10:08:20;;;;;;;1.85;0.88;;;;;;;;;;4994478;28;20571;-61
2022/09/19 10:10:49;;;;;;;4.63;0.90;;;;;;;;;;5004144;28;20261;-60
2022/09/19 10:13:25;;;;;;;0.75;0.75;;;;;;;;;;5009344;28;20686;-60
2022/09/19 10:15:54;;;;;;;0.63;0.63;;;;;;;;;;5008897;28;20378;-62
2022/09/19 10:18:25;;;;;;;0.85;0.70;;;;;;;;;;4991897;28;20308;-59
2022/09/19 10:20:53;;;;;;;0.65;0.65;;;;;;;;;;5010663;28;20251;-60
2022/09/19 10:23:23;;;;;;;0.93;0.75;;;;;;;;;;5007891;28;20209;-60
2022/09/19 10:25:51;;;;;;;0.90;0.80;;;;;;;;;;5011421;28;20201;-60
2022/09/19 10:28:24;;;;;;;0.68;0.68;;;;;;;;;;5006446;28;20214;-59
2022/09/19 10:30:55;;;;;;;4.38;0.60;;;;;;;;;;4991584;28;20300;-60
2022/09/19 10:33:28;;;;;;;0.57;0.57;;;;;;;;;;5000141;28;20272;-60
2022/09/19 10:35:58;;;;;;;1.88;0.80;;;;;;;;;;5002153;28;20324;-60
2022/09/19 10:38:26;;;;;;;2.17;0.70;;;;;;;;;;4991342;28;20210;-60
2022/09/19 10:40:56;;;;;;;2.05;0.80;;;;;;;;;;5000350;28;20228;-60
2022/09/19 10:43:26;;;;;;;0.82;0.80;;;;;;;;;;4990900;28;20245;-60
2022/09/19 10:45:54;;;;;;;2.78;1.13;;;;;;;;;;5008862;28;20207;-60
2022/09/19 10:48:26;;;;;;;2.08;0.90;;;;;;;;;;5007043;28;20213;-60
2022/09/19 10:50:55;;;;;;;3.83;0.80;;;;;;;;;;4991357;28;20296;-61
2022/09/19 10:53:24;;;;;;;2.15;0.63;;;;;;;;;;4999766;28;20213;-59
2022/09/19 10:55:52;;;;;;;2.45;0.80;;;;;;;;;;5010551;28;20604;-60
2022/09/19 10:58:22;;;;;;;0.70;0.70;;;;;;;;;;5009131;28;20239;-60
2022/09/19 11:00:52;;;;;;;0.93;0.52;;;;;;;;;;5008855;28;20270;-60
2022/09/19 11:03:23;;;;;;;0.80;0.80;;;;;;;;;;5008873;28;20232;-60
2022/09/19 11:06:07;;;;;;;1.33;0.93;;;;;;;;;;5010949;28;20241;-60
2022/09/19 11:08:44;;;;;;;2.45;0.60;;;;;;;;;;5006577;28;20343;-61
2022/09/19 11:11:22;;;;;;;3.00;0.85;;;;;;;;;;4999356;28;20239;-60
2022/09/19 11:14:07;;;;;;;6.75;0.75;;;;;;;;;;4998778;28;20261;-59
2022/09/19 11:16:37;;;;;;;1.17;0.60;;;;;;;;;;4993129;28;20232;-58
2022/09/19 11:19:12;;;;;;;2.25;0.85;;;;;;;;;;5006779;28;20263;-59
2022/09/19 11:21:47;;;;;;;4.40;0.77;;;;;;;;;;5009619;28;20232;-58
2022/09/19 11:24:21;;;;;;;0.73;0.73;;;;;;;;;;5005928;28;20216;-60
2022/09/19 11:27:01;;;;;;;3.88;1.05;;;;;;;;;;5007162;28;20197;-59
2022/09/19 11:29:45;;;;;;;0.77;0.55;;;;;;;;;;5008280;28;20216;-60
2022/09/19 11:32:19;;;;;;;0.63;0.60;;;;;;;;;;5008949;28;20223;-62
2022/09/19 11:34:50;;;;;;;1.00;0.50;;;;;;;;;;5007142;28;20570;-60
2022/09/19 11:37:25;;;;;;;3.63;0.85;;;;;;;;;;4992242;28;20233;-60
2022/09/19 11:40:00;;;;;;;0.70;0.70;;;;;;;;;;4995189;28;20689;-61
2022/09/19 11:42:34;;;;;;;0.80;0.80;;;;;;;;;;5006941;28;20205;-61
2022/09/19 11:45:07;;;;;;;0.75;0.63;;;;;;;;;;5005034;28;20209;-61
2022/09/19 11:47:44;;;;;;;0.95;0.85;;;;;;;;;;5007476;28;20259;-61
2022/09/19 11:50:37;;;;;;;2.92;0.65;;;;;;;;;;4998226;28;20201;-61
2022/09/19 11:53:13;;;;;;;1.33;0.60;;;;;;;;;;4987573;28;20826;-61
2022/09/19 11:55:43;;;;;;;1.02;0.50;;;;;;;;;;5008837;28;20267;-61
2022/09/19 11:58:15;;;;;;;1.98;0.70;;;;;;;;;;5009656;28;20300;-61
2022/09/19 12:00:50;;;;;;;1.85;0.80;;;;;;;;;;5009313;28;20687;-61
2022/09/19 12:03:23;;;;;;;0.77;0.70;;;;;;;;;;5009215;28;20228;-63
2022/09/19 12:05:56;;;;;;;1.80;0.55;;;;;;;;;;5004978;28;20299;-62
2022/09/19 12:08:32;;;;;;;2.55;0.52;;;;;;;;;;5007889;28;20294;-61
2022/09/19 12:11:05;;;;;;;1.20;0.47;;;;;;;;;;5004643;28;20222;-62
2022/09/19 12:13:42;;;;;;;0.95;0.55;;;;;;;;;;5007765;28;20251;-61
2022/09/19 12:16:11;;;;;;;1.50;0.40;;;;;;;;;;5007700;28;20292;-62
2022/09/19 12:18:41;;;;;;;0.50;0.50;;;;;;;;;;5009528;28;20243;-62
2022/09/19 12:21:09;;;;;;;0.40;0.40;;;;;;;;;;5009281;28;20216;-62
2022/09/19 12:26:30;;;;;;;1.13;0.50;;;;;;;;;;5009618;28;20220;-62
2022/09/19 12:29:00;;;;;;;0.40;0.40;;;;;;;;;;5008881;28;20209;-62
2022/09/19 12:31:29;;;;;;;0.57;0.30;;;;;;;;;;5007494;28;20208;-61
2022/09/19 12:34:00;;;;;;;0.75;0.50;;;;;;;;;;5007635;28;20216;-61
2022/09/19 12:36:30;;;;;;;0.40;0.40;;;;;;;;;;5009432;28;20264;-62
2022/09/19 12:39:03;;;;;;;0.95;0.45;;;;;;;;;;5009206;28;20639;-61
2022/09/19 12:41:34;;;;;;;0.47;0.30;;;;;;;;;;5009334;28;20312;-61
2022/09/19 12:44:04;;;;;;;0.85;0.50;;;;;;;;;;5009302;28;20213;-62
2022/09/19 12:46:35;;;;;;;0.93;0.88;;;;;;;;;;5009039;28;20201;-61
2022/09/19 12:49:06;;;;;;;0.60;0.60;;;;;;;;;;5001554;28;20214;-60
2022/09/19 12:51:40;;;;;;;0.40;0.40;;;;;;;;;;5001521;28;20236;-61
2022/09/19 12:54:13;;;;;;;0.82;0.82;;;;;;;;;;5007931;28;20243;-60
2022/09/19 12:56:42;;;;;;;0.40;0.40;;;;;;;;;;5008514;28;20229;-60
2022/09/19 12:59:14;;;;;;;0.63;0.60;;;;;;;;;;5008340;28;20275;-61
2022/09/19 13:01:45;;;;;;;0.57;0.40;;;;;;;;;;5008670;28;20220;-60
2022/09/19 13:04:21;;;;;;;0.40;0.40;;;;;;;;;;5008417;28;20698;-61
2022/09/19 13:06:49;;;;;;;4.93;0.60;;;;;;;;;;5008667;28;20213;-61
2022/09/19 13:09:20;;;;;;;1.27;0.70;;;;;;;;;;5008043;28;20303;-61
2022/09/19 13:11:49;;;;;;;3.38;0.55;;;;;;;;;;5007954;28;20220;-61
2022/09/19 13:14:19;;;;;;;0.90;0.55;;;;;;;;;;5008553;28;20679;-60
2022/09/19 13:25:13;;;;;;;2.65;0.40;;;;;;;;;;5012969;28;20204;-61
2022/09/19 13:27:40;;;;;;;0.20;0.20;;;;;;;;;;5012144;28;20197;-61
2022/09/19 13:30:29;;;;;;;0.30;0.30;;;;;;;;;;5010997;28;20205;-61
2022/09/19 13:32:57;;;;;;;0.38;0.30;;;;;;;;;;5012474;28;20204;-61
2022/09/19 13:35:25;;;;;;;1.10;0.35;;;;;;;;;;5011814;28;20213;-61
2022/09/19 13:37:59;;;;;;;2.80;0.40;;;;;;;;;;5002711;28;20232;-61
2022/09/19 13:40:41;;;;;;;0.30;0.30;;;;;;;;;;5007176;28;20224;-61
2022/09/19 13:43:28;;;;;;;0.20;0.20;;;;;;;;;;5005324;28;20201;-61
2022/09/19 13:45:59;;;;;;;0.30;0.30;;;;;;;;;;5008642;28;20209;-60
2022/09/19 13:48:30;;;;;;;0.20;0.20;;;;;;;;;;5007349;28;20263;-61
2022/09/19 13:51:00;;;;;;;2.63;0.50;;;;;;;;;;5010097;28;20690;-61
2022/09/19 13:53:33;;;;;;;0.55;0.20;;;;;;;;;;4995338;28;20224;-60
2022/09/19 13:56:01;;;;;;;0.40;0.28;;;;;;;;;;4991689;28;20221;-61
2022/09/19 13:58:31;;;;;;;3.03;0.68;;;;;;;;;;4991463;28;20233;-60
2022/09/19 14:01:20;;;;;;;0.77;0.32;;;;;;;;;;4997150;28;20583;-60
2022/09/19 14:03:48;;;;;;;0.30;0.30;;;;;;;;;;5010274;28;20229;-60
2022/09/19 14:06:20;;;;;;;1.65;0.30;;;;;;;;;;4999488;28;20267;-59
2022/09/19 14:08:48;;;;;;;1.05;0.57;;;;;;;;;;5003997;28;20240;-61
2022/09/19 14:11:18;;;;;;;0.50;0.40;;;;;;;;;;5010460;28;20275;-60
2022/09/19 14:13:45;;;;;;;1.65;0.40;;;;;;;;;;5004555;28;20205;-60
2022/09/19 14:16:36;;;;;;;0.52;0.30;;;;;;;;;;5009936;28;20722;-60
2022/09/19 14:19:05;;;;;;;0.30;0.30;;;;;;;;;;5010634;28;20214;-59
2022/09/19 14:21:57;;;;;;;1.00;0.40;;;;;;;;;;5010572;28;20222;-60
2022/09/19 14:24:44;;;;;;;0.20;0.20;;;;;;;;;;5010700;28;20586;-59
2022/09/19 14:27:18;;;;;;;0.20;0.20;;;;;;;;;;5009938;28;20292;-59
2022/09/19 14:29:50;;;;;;;1.58;0.25;;;;;;;;;;5007405;28;20233;-60
2022/09/19 14:32:23;;;;;;;0.30;0.30;;;;;;;;;;4995978;28;20213;-61
2022/09/19 14:35:00;;;;;;;0.85;0.32;;;;;;;;;;5009999;28;20209;-60
2022/09/19 14:37:43;;;;;;;2.08;0.22;;;;;;;;;;5008191;28;20232;-60
2022/09/19 14:40:24;;;;;;;2.45;0.50;;;;;;;;;;5007864;28;20293;-60
2022/09/19 14:43:10;;;;;;;0.30;0.30;;;;;;;;;;5009371;28;20212;-63
2022/09/19 14:45:50;;;;;;;3.03;0.50;;;;;;;;;;4978289;28;20230;-59
2022/09/19 14:48:28;;;;;;;3.60;0.50;;;;;;;;;;4997397;28;20205;-60
2022/09/19 14:50:58;;;;;;;0.93;0.28;;;;;;;;;;5000640;28;20214;-59
2022/09/19 14:53:26;;;;;;;1.08;0.45;;;;;;;;;;5004769;28;20221;-59
2022/09/19 14:55:58;;;;;;;0.50;0.30;;;;;;;;;;5009863;28;20570;-60
2022/09/19 14:58:26;;;;;;;1.27;0.35;;;;;;;;;;5004341;28;20221;-59
2022/09/19 15:00:55;;;;;;;1.63;0.28;;;;;;;;;;5008962;28;20259;-59
2022/09/19 15:03:23;;;;;;;0.63;0.30;;;;;;;;;;5008848;28;20232;-60
2022/09/19 15:05:52;;;;;;;0.20;0.20;;;;;;;;;;5006563;28;20256;-59
2022/09/19 15:08:25;;;;;;;1.08;0.40;;;;;;;;;;5001540;28;20292;-59
2022/09/19 15:11:00;;;;;;;1.55;0.30;;;;;;;;;;5008718;28;20494;-59
2022/09/19 15:13:27;;;;;;;0.38;0.30;;;;;;;;;;5009488;28;20219;-58
2022/09/19 15:15:56;;;;;;;0.43;0.38;;;;;;;;;;5009674;28;20352;-59
2022/09/19 15:18:25;;;;;;;1.25;0.30;;;;;;;;;;5006645;28;20251;-59
2022/09/19 15:20:57;;;;;;;1.10;0.40;;;;;;;;;;5008567;28;20213;-59
2022/09/19 15:23:25;;;;;;;0.52;0.47;;;;;;;;;;5002565;28;20205;-59
2022/09/19 15:25:56;;;;;;;1.25;0.40;;;;;;;;;;5009159;28;20209;-59
2022/09/19 15:28:26;;;;;;;0.20;0.20;;;;;;;;;;5007916;28;20667;-62